createdAt,value
2023-06-04T00:01:24.799Z,4.93
2023-06-04T00:03:51.487Z,5.40
2023-06-04T00:06:18.154Z,6.15
2023-06-04T00:08:44.704Z,5.10
2023-06-04T00:11:11.312Z,5.57
2023-06-04T00:13:37.952Z,5.43
2023-06-04T00:16:05.513Z,5.20
2023-06-04T00:18:32.040Z,5.13
2023-06-04T00:20:58.819Z,5.15
2023-06-04T00:23:25.384Z,4.85
2023-06-04T00:25:51.943Z,5.88
2023-06-04T00:28:18.408Z,5.40
2023-06-04T00:30:44.949Z,5.30
2023-06-04T00:33:11.412Z,5.70
2023-06-04T00:35:38.135Z,5.45
2023-06-04T00:38:04.616Z,5.00
2023-06-04T00:40:31.160Z,5.30
2023-06-04T00:42:57.616Z,5.40
2023-06-04T00:45:27.327Z,5.22
2023-06-04T00:47:54.235Z,5.82
2023-06-04T00:50:22.106Z,5.85
2023-06-04T00:52:50.878Z,5.05
2023-06-04T00:55:19.697Z,5.95
2023-06-04T00:57:46.267Z,6.57
2023-06-04T01:00:13.766Z,5.95
2023-06-04T01:02:42.109Z,5.97
2023-06-04T01:05:33.690Z,6.57
2023-06-04T01:08:02.375Z,5.80
2023-06-04T01:10:29.069Z,5.75
2023-06-04T01:12:55.574Z,5.82
2023-06-04T01:15:22.179Z,6.10
2023-06-04T01:17:52.741Z,5.93
2023-06-04T01:20:28.637Z,5.78
2023-06-04T01:22:55.503Z,5.85
2023-06-04T01:25:26.992Z,6.55
2023-06-04T01:27:58.142Z,5.28
2023-06-04T01:30:31.536Z,5.93
2023-06-04T01:32:59.955Z,5.70
2023-06-04T01:35:29.280Z,5.40
2023-06-04T01:37:56.894Z,5.65
2023-06-04T01:40:26.752Z,5.88
2023-06-04T01:42:53.925Z,5.75
2023-06-04T01:45:22.758Z,5.43
2023-06-04T01:47:49.383Z,5.40
2023-06-04T01:50:16.002Z,5.45
2023-06-04T01:52:42.518Z,5.50
2023-06-04T01:55:13.225Z,5.13
2023-06-04T01:57:41.607Z,5.35
2023-06-04T02:00:11.252Z,5.32
2023-06-04T02:02:38.619Z,5.13
2023-06-04T02:05:09.234Z,5.22
2023-06-04T02:07:39.385Z,4.65
2023-06-04T02:10:09.989Z,4.97
2023-06-04T02:12:41.329Z,5.28
2023-06-04T02:15:10.670Z,5.40
2023-06-04T02:17:43.831Z,5.03
2023-06-04T02:20:10.823Z,5.40
2023-06-04T02:22:37.432Z,5.10
2023-06-04T02:25:05.008Z,5.05
2023-06-04T02:27:31.927Z,5.15
2023-06-04T02:29:58.526Z,5.78
2023-06-04T02:32:25.123Z,5.55
2023-06-04T02:34:51.822Z,5.85
2023-06-04T02:37:18.450Z,5.78
2023-06-04T02:39:44.935Z,5.20
2023-06-04T02:42:11.500Z,5.90
2023-06-04T02:44:37.951Z,6.45
2023-06-04T02:47:04.798Z,6.38
2023-06-04T02:49:31.327Z,6.53
2023-06-04T02:51:57.932Z,6.97
2023-06-04T02:54:24.396Z,6.25
2023-06-04T02:56:50.959Z,6.65
2023-06-04T02:59:17.892Z,6.03
2023-06-04T03:01:44.478Z,6.68
2023-06-04T03:04:11.589Z,6.53
2023-06-04T03:06:41.810Z,6.18
2023-06-04T03:09:08.440Z,5.85
2023-06-04T03:11:34.991Z,5.63
2023-06-04T03:14:01.528Z,5.35
2023-06-04T03:16:28.091Z,5.10
2023-06-04T03:18:54.595Z,5.63
2023-06-04T03:21:21.083Z,6.25
2023-06-04T03:23:47.766Z,5.97
2023-06-04T03:26:14.957Z,5.82
2023-06-04T03:28:41.697Z,5.50
2023-06-04T03:31:08.434Z,6.65
2023-06-04T03:33:35.573Z,6.65
2023-06-04T03:36:03.024Z,5.95
2023-06-04T03:38:29.604Z,5.43
2023-06-04T03:40:56.221Z,6.25
2023-06-04T03:43:23.026Z,5.82
2023-06-04T03:45:49.532Z,5.75
2023-06-04T03:48:15.970Z,5.65
2023-06-04T03:50:42.505Z,5.55
2023-06-04T03:53:09.115Z,5.72
2023-06-04T03:55:35.628Z,6.88
2023-06-04T03:58:02.071Z,7.07
2023-06-04T04:00:28.713Z,7.47
2023-06-04T04:02:55.306Z,7.93
2023-06-04T04:05:21.892Z,6.22
2023-06-04T04:07:49.155Z,6.28
2023-06-04T04:10:15.567Z,5.70
2023-06-04T04:12:42.251Z,5.43
2023-06-04T04:15:09.589Z,5.18
2023-06-04T04:17:36.162Z,5.10
2023-06-04T04:20:05.086Z,6.32
2023-06-04T04:22:32.425Z,7.75
2023-06-04T04:24:59.060Z,6.65
2023-06-04T04:27:25.521Z,6.40
2023-06-04T04:29:52.076Z,5.75
2023-06-04T04:32:18.691Z,6.60
2023-06-04T04:34:53.278Z,5.60
2023-06-04T04:37:22.218Z,6.20
2023-06-04T04:39:52.732Z,5.85
2023-06-04T04:42:20.193Z,6.05
2023-06-04T04:44:48.977Z,5.93
2023-06-04T04:47:16.566Z,5.70
2023-06-04T04:49:43.470Z,5.88
2023-06-04T04:52:10.051Z,4.82
2023-06-04T04:54:36.613Z,5.55
2023-06-04T04:57:13.494Z,5.72
2023-06-04T04:59:41.007Z,5.85
2023-06-04T05:02:07.646Z,4.85
2023-06-04T05:04:34.256Z,4.97
2023-06-04T05:07:00.953Z,4.93
2023-06-04T05:09:27.514Z,5.40
2023-06-04T05:11:53.988Z,5.25
2023-06-04T05:14:20.592Z,4.97
2023-06-04T05:16:49.926Z,4.68
2023-06-04T05:19:20.238Z,4.68
2023-06-04T05:21:46.742Z,4.35
2023-06-04T05:24:13.235Z,4.47
2023-06-04T05:26:40.765Z,4.80
2023-06-04T05:29:08.614Z,4.60
2023-06-04T05:31:36.178Z,4.53
2023-06-04T05:34:05.448Z,5.15
2023-06-04T05:36:32.698Z,3.83
2023-06-04T05:39:00.860Z,4.57
2023-06-04T05:41:28.742Z,4.00
2023-06-04T05:43:55.530Z,4.55
2023-06-04T05:46:22.870Z,3.70
2023-06-04T05:48:49.469Z,4.18
2023-06-04T05:51:15.990Z,3.97
2023-06-04T05:53:43.134Z,3.83
2023-06-04T05:56:09.775Z,3.72
2023-06-04T06:01:02.790Z,3.90
2023-06-04T06:03:29.419Z,3.42
2023-06-04T06:08:24.730Z,3.80
2023-06-04T06:10:51.262Z,3.45
2023-06-04T06:13:17.843Z,3.58
2023-06-04T06:18:11.104Z,3.15
2023-06-04T06:20:37.550Z,2.97
2023-06-04T06:23:08.182Z,2.50
2023-06-04T06:25:34.700Z,2.65
2023-06-04T06:28:01.378Z,2.47
2023-06-04T06:30:27.814Z,2.40
2023-06-04T06:32:56.551Z,2.42
2023-06-04T06:35:23.524Z,2.35
2023-06-04T06:40:16.578Z,2.30
2023-06-04T06:42:43.234Z,2.10
2023-06-04T06:47:36.650Z,2.30
2023-06-04T06:54:58.030Z,2.15
2023-06-04T06:57:24.671Z,2.03
2023-06-04T07:02:19.709Z,2.10
2023-06-04T07:07:12.653Z,1.98
2023-06-04T07:09:39.141Z,1.95
2023-06-04T07:12:06.162Z,1.88
2023-06-04T07:14:32.713Z,1.88
2023-06-04T07:19:25.653Z,2.22
2023-06-04T07:21:55.688Z,2.08
2023-06-04T07:24:22.695Z,2.08
2023-06-04T07:26:49.630Z,2.10
2023-06-04T07:29:16.269Z,2.08
2023-06-04T07:31:42.890Z,2.22
2023-06-04T07:34:09.356Z,2.03
2023-06-04T07:36:36.177Z,2.35
2023-06-04T07:39:02.794Z,2.30
2023-06-04T07:41:29.270Z,2.20
2023-06-04T07:46:22.192Z,2.25
2023-06-04T07:48:48.665Z,2.47
2023-06-04T07:53:43.461Z,2.35
2023-06-04T07:56:09.914Z,2.63
2023-06-04T07:58:36.604Z,2.03
2023-06-04T08:01:03.048Z,2.33
2023-06-04T08:05:56.177Z,2.30
2023-06-04T08:13:15.464Z,2.30
2023-06-04T08:15:42.238Z,2.30
2023-06-04T08:18:08.670Z,2.33
2023-06-04T08:20:35.206Z,2.05
2023-06-04T08:23:01.637Z,2.45
2023-06-04T08:32:47.350Z,2.45
2023-06-04T08:40:09.905Z,2.35
2023-06-04T08:42:42.389Z,1.98
2023-06-04T08:45:14.426Z,2.70
2023-06-04T08:47:48.879Z,2.50
2023-06-04T08:50:18.183Z,2.40
2023-06-04T08:52:46.099Z,2.17
2023-06-04T08:55:14.894Z,2.58
2023-06-04T08:57:41.489Z,2.30
2023-06-04T09:00:09.457Z,2.60
2023-06-04T09:02:39.331Z,2.67
2023-06-04T09:05:11.297Z,2.20
2023-06-04T09:07:40.179Z,2.35
2023-06-04T09:10:13.532Z,2.50
2023-06-04T09:12:47.541Z,2.60
2023-06-04T09:15:14.422Z,2.58
2023-06-04T09:17:40.957Z,2.70
2023-06-04T09:20:10.597Z,2.80
2023-06-04T09:22:38.296Z,2.28
2023-06-04T09:25:08.965Z,2.60
2023-06-04T09:27:42.049Z,2.65
2023-06-04T09:30:11.966Z,2.65
2023-06-04T09:32:38.472Z,2.60
2023-06-04T09:37:56.727Z,2.88
2023-06-04T09:40:24.423Z,2.70
2023-06-04T09:42:58.835Z,2.30
2023-06-04T09:45:33.310Z,2.50
2023-06-04T09:48:00.708Z,2.80
2023-06-04T09:50:33.203Z,3.25
2023-06-04T09:52:59.944Z,2.88
2023-06-04T09:57:54.206Z,2.67
2023-06-04T10:00:24.061Z,2.78
2023-06-04T10:02:57.015Z,2.58
2023-06-04T10:05:24.075Z,2.42
2023-06-04T10:07:53.103Z,3.00
2023-06-04T10:10:22.507Z,2.88
2023-06-04T10:12:55.715Z,2.75
2023-06-04T10:15:22.441Z,3.05
2023-06-04T10:20:16.379Z,2.80
2023-06-04T10:22:43.683Z,2.35
2023-06-04T10:25:11.376Z,2.70
2023-06-04T10:27:38.465Z,3.03
2023-06-04T10:30:06.036Z,3.05
2023-06-04T10:32:32.958Z,2.85
2023-06-04T10:34:59.579Z,2.97
2023-06-04T10:37:27.567Z,3.00
2023-06-04T10:39:58.652Z,3.45
2023-06-04T10:42:26.362Z,3.30
2023-06-04T10:44:58.444Z,3.13
2023-06-04T10:47:30.539Z,2.95
2023-06-04T10:50:08.733Z,2.83
2023-06-04T10:52:35.228Z,3.30
2023-06-04T10:55:06.786Z,3.08
2023-06-04T10:57:33.835Z,3.20
2023-06-04T11:00:02.241Z,3.33
2023-06-04T11:02:28.839Z,3.13
2023-06-04T11:05:10.329Z,3.20
2023-06-04T11:07:44.770Z,3.17
2023-06-04T11:10:12.519Z,2.90
2023-06-04T11:12:49.071Z,3.38
2023-06-04T11:15:16.707Z,3.45
2023-06-04T11:17:59.317Z,3.42
2023-06-04T11:20:26.345Z,3.83
2023-06-04T11:22:53.745Z,3.33
2023-06-04T11:25:20.876Z,3.55
2023-06-04T11:27:48.216Z,3.50
2023-06-04T11:30:15.819Z,3.17
2023-06-04T11:32:42.283Z,3.55
2023-06-04T11:35:09.560Z,3.33
2023-06-04T11:37:36.565Z,3.28
2023-06-04T11:40:05.600Z,3.78
2023-06-04T11:42:32.296Z,3.67
2023-06-04T11:47:26.334Z,3.28
2023-06-04T11:50:00.482Z,3.92
2023-06-04T11:52:26.972Z,3.75
2023-06-04T11:54:53.686Z,3.47
2023-06-04T11:59:46.985Z,3.72
2023-06-04T12:02:13.556Z,3.35
2023-06-04T12:04:40.173Z,3.40
2023-06-04T12:07:07.530Z,3.22
2023-06-04T12:09:39.086Z,3.55
2023-06-04T12:12:07.704Z,3.63
2023-06-04T12:14:35.728Z,3.72
2023-06-04T12:17:03.571Z,3.47
2023-06-04T12:19:30.056Z,3.70
2023-06-04T12:22:04.017Z,3.95
2023-06-04T12:24:31.556Z,3.75
2023-06-04T12:27:12.312Z,3.85
2023-06-04T12:29:40.878Z,3.83
2023-06-04T12:32:12.002Z,3.47
2023-06-04T12:34:41.325Z,3.45
2023-06-04T12:37:09.433Z,3.70
2023-06-04T12:39:37.966Z,3.35
2023-06-04T12:42:06.838Z,3.63
2023-06-04T12:44:35.653Z,3.83
2023-06-04T12:47:02.955Z,3.28
2023-06-04T12:49:29.635Z,3.60
2023-06-04T12:51:56.159Z,3.90
2023-06-04T12:54:22.907Z,3.53
2023-06-04T12:59:16.057Z,3.42
2023-06-04T13:01:42.841Z,3.28
2023-06-04T13:04:09.584Z,3.72
2023-06-04T13:06:36.874Z,3.13
2023-06-04T13:09:04.891Z,3.80
2023-06-04T13:11:31.495Z,3.38
2023-06-04T13:13:57.916Z,3.75
2023-06-04T13:16:24.453Z,4.00
2023-06-04T13:18:51.097Z,3.42
2023-06-04T13:21:17.562Z,3.72
2023-06-04T13:23:50.762Z,3.63
2023-06-04T13:26:18.943Z,3.75
2023-06-04T13:28:45.460Z,4.35
2023-06-04T13:31:12.263Z,3.28
2023-06-04T13:33:38.911Z,3.20
2023-06-04T13:36:06.206Z,3.72
2023-06-04T13:38:33.344Z,3.55
2023-06-04T13:40:59.996Z,3.33
2023-06-04T13:43:26.789Z,3.50
2023-06-04T13:45:53.439Z,3.47
2023-06-04T13:48:20.158Z,3.50
2023-06-04T13:53:15.987Z,3.28
2023-06-04T13:55:42.682Z,3.60
2023-06-04T13:58:09.281Z,3.55
2023-06-04T14:00:35.894Z,3.80
2023-06-04T14:03:02.549Z,3.50
2023-06-04T14:05:29.038Z,3.70
2023-06-04T14:07:56.404Z,3.42
2023-06-04T14:10:22.988Z,3.35
2023-06-04T14:12:49.604Z,3.33
2023-06-04T14:15:16.173Z,3.50
2023-06-04T14:17:43.011Z,3.70
2023-06-04T14:25:07.511Z,4.18
2023-06-04T14:27:35.400Z,3.53
2023-06-04T14:30:05.403Z,3.28
2023-06-04T14:32:33.177Z,3.72
2023-06-04T14:34:59.730Z,3.13
2023-06-04T14:37:26.536Z,3.75
2023-06-04T14:39:53.289Z,3.25
2023-06-04T14:44:46.942Z,3.42
2023-06-04T14:47:13.849Z,3.78
2023-06-04T14:49:40.479Z,3.15
2023-06-04T14:52:07.419Z,3.78
2023-06-04T14:54:35.825Z,3.67
2023-06-04T14:57:02.979Z,3.20
2023-06-04T14:59:29.557Z,3.42
2023-06-04T15:01:56.317Z,3.33
2023-06-04T15:06:50.845Z,3.40
2023-06-04T15:09:17.311Z,3.10
2023-06-04T15:11:43.835Z,3.67
2023-06-04T15:14:10.483Z,3.45
2023-06-04T15:16:36.976Z,3.80
2023-06-04T15:19:03.575Z,3.53
2023-06-04T15:21:30.252Z,3.38
2023-06-04T15:23:56.859Z,3.40
2023-06-04T15:26:25.125Z,3.70
2023-06-04T15:28:51.624Z,3.42
2023-06-04T15:31:18.185Z,3.30
2023-06-04T15:33:44.734Z,3.15
2023-06-04T15:36:11.622Z,3.10
2023-06-04T15:38:38.160Z,3.17
2023-06-04T15:41:04.589Z,3.42
2023-06-04T15:43:31.105Z,2.90
2023-06-04T15:45:57.689Z,3.17
2023-06-04T15:48:24.296Z,3.88
2023-06-04T15:50:50.899Z,3.53
2023-06-04T15:53:17.469Z,3.00
2023-06-04T15:55:47.218Z,3.60
2023-06-04T15:58:13.891Z,3.28
2023-06-04T16:00:40.383Z,3.08
2023-06-04T16:03:06.893Z,3.00
2023-06-04T16:05:33.678Z,2.90
2023-06-04T16:10:27.065Z,3.03
2023-06-04T16:12:54.241Z,2.90
2023-06-04T16:15:20.869Z,3.08
2023-06-04T16:17:48.037Z,3.17
2023-06-04T16:20:16.131Z,3.10
2023-06-04T16:22:42.936Z,3.42
2023-06-04T16:27:36.527Z,14.82
2023-06-04T16:30:05.204Z,7.40
2023-06-04T16:32:31.915Z,3.33
2023-06-04T16:37:24.975Z,8.27
2023-06-04T16:39:51.511Z,4.57
2023-06-04T16:42:18.114Z,3.47
2023-06-04T16:44:44.535Z,3.15
2023-06-04T16:47:11.142Z,3.03
2023-06-04T16:49:37.611Z,2.85
2023-06-04T16:52:05.343Z,2.90
2023-06-04T16:54:31.837Z,2.70
2023-06-04T16:56:59.469Z,2.63
2023-06-04T16:59:31.290Z,3.10
2023-06-04T17:01:58.346Z,3.05
2023-06-04T17:04:25.086Z,3.00
2023-06-04T17:06:51.555Z,3.05
2023-06-04T17:09:18.090Z,2.83
2023-06-04T17:11:44.819Z,3.10
2023-06-04T17:16:37.919Z,2.92
2023-06-04T17:19:05.993Z,3.13
2023-06-04T17:21:32.536Z,3.13
2023-06-04T17:23:59.212Z,3.40
2023-06-04T17:26:27.968Z,3.33
2023-06-04T17:28:54.523Z,3.40
2023-06-04T17:31:21.034Z,2.75
2023-06-04T17:33:47.614Z,2.78
2023-06-04T17:36:14.265Z,2.70
2023-06-04T17:38:43.122Z,3.00
2023-06-04T17:41:09.580Z,2.70
2023-06-04T17:43:37.091Z,5.00
2023-06-04T17:46:03.698Z,2.80
2023-06-04T17:48:30.317Z,2.70
2023-06-04T17:50:56.823Z,2.70
2023-06-04T17:53:24.560Z,2.72
2023-06-04T17:55:51.933Z,2.60
2023-06-04T17:58:18.517Z,2.85
2023-06-04T18:00:45.160Z,2.65
2023-06-04T18:03:12.581Z,2.60
2023-06-04T18:05:39.104Z,3.20
2023-06-04T18:08:05.655Z,2.80
2023-06-04T18:10:32.522Z,2.88
2023-06-04T18:12:58.960Z,2.80
2023-06-04T18:15:25.566Z,2.40
2023-06-04T18:17:52.403Z,2.60
2023-06-04T18:20:18.915Z,2.30
2023-06-04T18:22:45.617Z,3.13
2023-06-04T18:25:12.208Z,2.70
2023-06-04T18:27:38.878Z,2.85
2023-06-04T18:30:06.227Z,2.70
2023-06-04T18:32:32.756Z,2.60
2023-06-04T18:34:59.664Z,2.80
2023-06-04T18:37:26.217Z,2.28
2023-06-04T18:39:53.197Z,2.20
2023-06-04T18:44:58.507Z,2.60
2023-06-04T18:47:25.340Z,2.35
2023-06-04T18:49:52.053Z,2.30
2023-06-04T18:52:18.481Z,2.30
2023-06-04T18:54:45.819Z,2.15
2023-06-04T18:57:14.485Z,2.17
2023-06-04T18:59:41.787Z,2.80
2023-06-04T19:02:08.379Z,2.30
2023-06-04T19:04:34.841Z,2.13
2023-06-04T19:07:03.524Z,2.10
2023-06-04T19:09:30.089Z,2.25
2023-06-04T19:11:56.638Z,2.38
2023-06-04T19:14:23.076Z,2.30
2023-06-04T19:16:51.931Z,2.30
2023-06-04T19:19:22.380Z,2.35
2023-06-04T19:21:53.315Z,2.35
2023-06-04T19:24:21.826Z,2.15
2023-06-04T19:26:49.910Z,2.05
2023-06-04T19:29:16.450Z,1.98
2023-06-04T19:31:43.189Z,2.10
2023-06-04T19:34:09.736Z,1.98
2023-06-04T19:36:36.419Z,2.10
2023-06-04T19:39:03.227Z,1.98
2023-06-04T19:41:29.745Z,1.92
2023-06-04T19:43:56.189Z,1.80
2023-06-04T19:46:22.724Z,2.20
2023-06-04T19:48:49.349Z,2.00
2023-06-04T19:51:15.871Z,2.10
2023-06-04T19:53:42.343Z,2.05
2023-06-04T19:56:09.060Z,2.03
2023-06-04T19:58:35.854Z,1.80
2023-06-04T20:01:02.473Z,2.22
2023-06-04T20:03:31.529Z,2.10
2023-06-04T20:05:58.203Z,2.20
2023-06-04T20:08:24.673Z,2.00
2023-06-04T20:10:51.672Z,2.10
2023-06-04T20:13:18.231Z,2.03
2023-06-04T20:15:44.762Z,1.80
2023-06-04T20:18:11.262Z,1.90
2023-06-04T20:20:37.780Z,2.08
2023-06-04T20:23:04.213Z,1.85
2023-06-04T20:25:33.970Z,2.33
2023-06-04T20:28:00.538Z,2.10
2023-06-04T20:30:27.137Z,2.00
2023-06-04T20:32:56.643Z,2.05
2023-06-04T20:35:23.439Z,1.85
2023-06-04T20:37:50.118Z,1.90
2023-06-04T20:40:16.963Z,1.92
2023-06-04T20:42:43.421Z,2.00
2023-06-04T20:45:10.028Z,2.30
2023-06-04T20:47:36.527Z,2.15
2023-06-04T20:50:03.367Z,2.25
2023-06-04T20:52:29.819Z,2.00
2023-06-04T20:54:56.233Z,2.40
2023-06-04T20:57:22.719Z,1.90
2023-06-04T20:59:49.206Z,2.15
2023-06-04T21:02:15.783Z,2.10
2023-06-04T21:04:42.348Z,2.03
2023-06-04T21:07:08.792Z,1.90
2023-06-04T21:09:35.436Z,1.80
2023-06-04T21:12:01.875Z,1.90
2023-06-04T21:14:28.284Z,2.33
2023-06-04T21:16:54.740Z,1.75
2023-06-04T21:19:21.238Z,2.40
2023-06-04T21:21:47.691Z,2.03
2023-06-04T21:24:15.189Z,1.95
2023-06-04T21:26:41.699Z,1.95
2023-06-04T21:29:08.211Z,2.00
2023-06-04T21:31:34.706Z,1.92
2023-06-04T21:34:01.134Z,2.63
2023-06-04T21:36:27.659Z,2.33
2023-06-04T21:38:54.117Z,2.53
2023-06-04T21:41:21.490Z,2.40
2023-06-04T21:43:47.991Z,2.22
2023-06-04T21:46:15.379Z,2.58
2023-06-04T21:48:44.499Z,2.60
2023-06-04T21:51:11.187Z,2.90
2023-06-04T21:53:37.594Z,3.17
2023-06-04T21:56:04.512Z,2.95
2023-06-04T21:58:31.025Z,3.10
2023-06-04T22:00:57.521Z,2.78
2023-06-04T22:03:24.576Z,2.95
2023-06-04T22:05:51.311Z,2.75
2023-06-04T22:08:18.012Z,2.70
2023-06-04T22:10:44.566Z,2.40
2023-06-04T22:13:11.136Z,2.35
2023-06-04T22:15:37.762Z,2.20
2023-06-04T22:18:04.714Z,2.40
2023-06-04T22:20:31.282Z,2.58
2023-06-04T22:22:57.747Z,2.63
2023-06-04T22:25:24.153Z,2.92
2023-06-04T22:27:51.009Z,2.92
2023-06-04T22:30:17.574Z,2.72
2023-06-04T22:32:44.093Z,2.35
2023-06-04T22:35:10.609Z,2.53
2023-06-04T22:37:37.131Z,2.15
2023-06-04T22:40:04.290Z,2.72
2023-06-04T22:42:30.731Z,2.22
2023-06-04T22:44:57.212Z,2.47
2023-06-04T22:47:23.816Z,2.53
2023-06-04T22:49:50.304Z,2.63
2023-06-04T22:52:16.718Z,1.90
2023-06-04T22:54:43.259Z,2.50
2023-06-04T22:57:09.704Z,2.58
2023-06-04T22:59:36.242Z,2.05
2023-06-04T23:02:02.877Z,2.50
2023-06-04T23:04:29.533Z,2.30
2023-06-04T23:06:56.000Z,2.53
2023-06-04T23:09:22.502Z,2.33
2023-06-04T23:11:48.970Z,2.85
2023-06-04T23:14:15.506Z,2.95
2023-06-04T23:16:42.680Z,2.92
2023-06-04T23:19:10.859Z,2.63
2023-06-04T23:21:40.230Z,2.58
2023-06-04T23:24:08.442Z,2.53
2023-06-04T23:26:35.461Z,2.53
2023-06-04T23:29:02.702Z,2.45
2023-06-04T23:31:29.353Z,2.40
2023-06-04T23:33:55.998Z,3.08
2023-06-04T23:36:22.514Z,2.80
2023-06-04T23:38:49.082Z,2.65
2023-06-04T23:41:16.266Z,2.60
2023-06-04T23:43:43.057Z,2.85
2023-06-04T23:46:09.573Z,2.50
2023-06-04T23:48:36.013Z,3.08
2023-06-04T23:51:02.454Z,3.05
2023-06-04T23:53:28.967Z,3.00
2023-06-04T23:55:55.542Z,3.00
2023-06-04T23:58:22.020Z,3.17
